Time;durP1;ratioP1;P1;durP2;ratioP2;P2;SDS_P1;SDS_P2;PMS_P1;PMS_P2;Temp;Humidity;BMP_temperature;BMP_pressure;BME280_temperature;BME280_humidity;BME280_pressure;Samples;Min_cycle;Max_cycle;Signal;HPM_P1;HPM_P2
2022/09/08 00:01:26;;;;;;;5.23;3.00;;;18.60;99.90;;;;;;5056947;28;20474;-73
2022/09/08 00:03:51;;;;;;;5.60;2.90;;;18.60;99.90;;;;;;5057029;28;20253;-73
2022/09/08 00:06:18;;;;;;;8.70;3.30;;;18.60;99.90;;;;;;5059368;28;20188;-73
2022/09/08 00:08:45;;;;;;;3.67;3.10;;;18.60;99.90;;;;;;5060370;28;20658;-73
2022/09/08 00:11:12;;;;;;;3.40;3.10;;;18.50;99.90;;;;;;5064737;28;20410;-73
2022/09/08 00:13:40;;;;;;;3.90;3.30;;;18.50;99.90;;;;;;5067436;28;20430;-72
2022/09/08 00:16:07;;;;;;;9.63;2.93;;;18.50;99.90;;;;;;5068286;28;20424;-73
2022/09/08 00:18:34;;;;;;;4.00;3.40;;;18.50;99.90;;;;;;5069421;28;20452;-73
2022/09/08 00:21:00;;;;;;;4.47;4.07;;;18.40;99.90;;;;;;5070365;28;20411;-73
2022/09/08 00:23:26;;;;;;;3.63;2.90;;;18.50;99.90;;;;;;5061109;28;20425;-73
2022/09/08 00:25:51;;;;;;;3.40;3.00;;;18.40;99.90;;;;;;5055626;28;20221;-73
2022/09/08 00:28:17;;;;;;;4.63;3.50;;;18.40;99.90;;;;;;5055509;28;20641;-73
2022/09/08 00:30:42;;;;;;;3.70;3.13;;;18.30;99.90;;;;;;5055454;28;20204;-73
2022/09/08 00:33:08;;;;;;;3.30;3.00;;;18.30;99.90;;;;;;5055371;28;20196;-73
2022/09/08 00:35:33;;;;;;;4.80;3.40;;;18.30;99.90;;;;;;5055192;28;20178;-72
2022/09/08 00:37:59;;;;;;;2.97;2.67;;;18.20;99.90;;;;;;5055287;28;20170;-73
2022/09/08 00:40:25;;;;;;;4.23;3.40;;;18.20;99.90;;;;;;5055165;28;20200;-73
2022/09/08 00:43:03;;;;;;;4.83;3.20;;;18.20;99.90;;;;;;5054905;28;20208;-73
2022/09/08 00:45:38;;;;;;;4.33;2.97;;;18.20;99.90;;;;;;5055115;28;20463;-72
2022/09/08 00:48:15;;;;;;;6.03;3.60;;;18.20;99.90;;;;;;5055249;28;20413;-72
2022/09/08 00:50:40;;;;;;;4.00;2.87;;;18.20;99.90;;;;;;5055308;28;20393;-73
2022/09/08 00:53:13;;;;;;;4.00;3.23;;;18.20;99.90;;;;;;5055221;28;20487;-73
2022/09/08 00:55:39;;;;;;;4.17;2.77;;;18.10;99.90;;;;;;5055845;28;20195;-72
2022/09/08 00:58:06;;;;;;;3.20;2.90;;;18.10;99.90;;;;;;5055508;28;20458;-73
2022/09/08 01:00:34;;;;;;;3.47;2.90;;;18.10;99.90;;;;;;5055345;28;20872;-73
2022/09/08 01:03:00;;;;;;;3.30;3.00;;;18.00;99.90;;;;;;5059039;28;20431;-73
2022/09/08 01:05:33;;;;;;;4.63;3.40;;;18.00;99.90;;;;;;5059451;28;20401;-73
2022/09/08 01:14:13;;;;;;;3.23;2.80;;;17.90;99.90;;;;;;5064515;28;20389;-72
2022/09/08 01:16:41;;;;;;;4.03;2.90;;;17.90;99.90;;;;;;5066422;28;20407;-72
2022/09/08 01:19:23;;;;;;;3.07;2.87;;;17.80;99.90;;;;;;5066938;28;20186;-72
2022/09/08 01:22:09;;;;;;;4.47;3.20;;;17.80;99.90;;;;;;5070795;28;20425;-72
2022/09/08 01:24:49;;;;;;;4.40;3.30;;;17.70;99.90;;;;;;5074486;28;20415;-72
2022/09/08 01:27:21;;;;;;;5.77;2.60;;;17.70;99.90;;;;;;5071949;28;20398;-73
2022/09/08 01:29:48;;;;;;;3.27;2.43;;;17.60;99.90;;;;;;5064046;28;20789;-73
2022/09/08 01:32:14;;;;;;;5.60;2.90;;;17.60;99.90;;;;;;5056429;28;20433;-73
2022/09/08 01:34:42;;;;;;;6.40;2.80;;;17.60;99.90;;;;;;5055936;28;20423;-73
2022/09/08 01:37:07;;;;;;;4.27;2.50;;;17.50;99.90;;;;;;5054222;28;20418;-73
2022/09/08 01:39:33;;;;;;;4.30;2.67;;;17.50;99.90;;;;;;5054207;28;20457;-72
2022/09/08 01:41:59;;;;;;;3.50;2.40;;;17.50;99.90;;;;;;5075772;22;20288;-67
2022/09/08 01:44:26;;;;;;;4.90;2.50;;;17.40;99.90;;;;;;5032550;28;20284;-67
2022/09/08 01:46:51;;;;;;;2.80;2.57;;;17.40;99.90;;;;;;5033551;28;20903;-66
2022/09/08 01:49:17;;;;;;;3.33;2.60;;;17.40;99.90;;;;;;5033530;28;20416;-66
2022/09/08 01:51:42;;;;;;;3.77;2.50;;;17.40;99.90;;;;;;5033367;28;20186;-66
2022/09/08 01:54:08;;;;;;;3.80;3.10;;;17.50;99.90;;;;;;5033729;28;20193;-66
2022/09/08 01:56:40;;;;;;;6.47;3.23;;;17.40;99.90;;;;;;5033352;28;20641;-66
2022/09/08 01:59:05;;;;;;;5.93;2.60;;;17.40;99.90;;;;;;5032638;28;20201;-67
2022/09/08 02:01:31;;;;;;;3.00;2.70;;;17.40;99.90;;;;;;5033830;28;20412;-67
2022/09/08 02:03:56;;;;;;;3.00;2.50;;;17.40;99.90;;;;;;5033676;28;20736;-68
2022/09/08 02:06:23;;;;;;;4.00;2.70;;;17.40;99.90;;;;;;5033534;28;20222;-67
2022/09/08 02:08:52;;;;;;;2.80;2.43;;;17.40;99.90;;;;;;5033334;28;20580;-68
2022/09/08 02:11:19;;;;;;;2.13;1.97;;;17.40;99.90;;;;;;5033000;28;20441;-67
2022/09/08 02:13:45;;;;;;;2.67;2.47;;;17.30;99.90;;;;;;5032985;28;20423;-68
2022/09/08 02:16:11;;;;;;;2.87;2.67;;;17.30;99.90;;;;;;5033004;28;20409;-68
2022/09/08 02:18:38;;;;;;;3.83;2.53;;;17.20;99.90;;;;;;5033431;28;20447;-68
2022/09/08 02:21:16;;;;;;;8.80;2.90;;;17.20;99.90;;;;;;5033068;28;20465;-67
2022/09/08 02:23:44;;;;;;;4.73;2.33;;;17.20;99.90;;;;;;5032930;28;20420;-68
2022/09/08 02:26:22;;;;;;;2.77;2.33;;;17.20;99.90;;;;;;5032659;28;20535;-67
2022/09/08 02:28:51;;;;;;;4.27;2.43;;;17.10;99.90;;;;;;5032815;28;20764;-67
2022/09/08 02:31:17;;;;;;;2.93;2.60;;;17.00;99.90;;;;;;5032587;28;20408;-67
2022/09/08 02:33:42;;;;;;;3.63;2.37;;;17.00;99.90;;;;;;5032216;28;20952;-67
2022/09/08 02:36:08;;;;;;;5.43;2.23;;;17.00;99.90;;;;;;5032239;28;20189;-67
2022/09/08 02:38:33;;;;;;;4.17;3.00;;;16.90;99.90;;;;;;5032234;28;20583;-67
2022/09/08 02:41:00;;;;;;;3.30;3.00;;;16.90;99.90;;;;;;5032281;28;20170;-67
2022/09/08 02:43:26;;;;;;;3.40;2.63;;;16.90;99.90;;;;;;5032024;28;20705;-67
2022/09/08 02:45:52;;;;;;;4.13;2.13;;;16.90;99.90;;;;;;5032033;28;20444;-67
2022/09/08 02:48:17;;;;;;;3.40;2.07;;;16.80;99.90;;;;;;5032407;28;20442;-67
2022/09/08 02:50:43;;;;;;;5.50;2.87;;;16.80;99.90;;;;;;5032484;28;20424;-67
2022/09/08 02:53:09;;;;;;;4.90;2.60;;;16.70;99.90;;;;;;5032164;28;20254;-66
2022/09/08 02:55:42;;;;;;;3.97;3.10;;;16.70;99.90;;;;;;5032018;28;20165;-66
2022/09/08 02:58:09;;;;;;;4.07;2.67;;;16.70;99.90;;;;;;5032107;28;20410;-66
2022/09/08 03:00:36;;;;;;;2.67;2.47;;;16.70;99.90;;;;;;5031755;28;20877;-66
2022/09/08 03:03:02;;;;;;;3.53;2.17;;;16.70;99.90;;;;;;5031552;28;20426;-66
2022/09/08 03:05:29;;;;;;;3.67;2.20;;;16.70;99.90;;;;;;5031445;28;20858;-66
2022/09/08 03:07:56;;;;;;;3.37;2.23;;;16.60;99.90;;;;;;5031604;28;20466;-66
2022/09/08 03:10:23;;;;;;;4.30;2.40;;;16.60;99.90;;;;;;5031567;28;20408;-66
2022/09/08 03:12:50;;;;;;;3.03;2.30;;;16.50;99.90;;;;;;5031964;28;20435;-66
2022/09/08 03:15:16;;;;;;;1.93;1.70;;;16.50;99.90;;;;;;5031690;28;20904;-66
2022/09/08 03:17:42;;;;;;;4.47;2.87;;;16.50;99.90;;;;;;5032018;28;20418;-66
2022/09/08 03:20:08;;;;;;;2.70;2.50;;;16.40;99.90;;;;;;5031890;28;20199;-68
2022/09/08 03:22:34;;;;;;;3.23;2.30;;;16.40;99.90;;;;;;5032344;28;20191;-67
2022/09/08 03:24:59;;;;;;;4.87;2.87;;;16.40;99.90;;;;;;5031582;28;20403;-67
2022/09/08 03:27:26;;;;;;;4.50;2.40;;;16.30;99.90;;;;;;5032069;28;20657;-66
2022/09/08 03:29:53;;;;;;;2.90;2.70;;;16.40;99.90;;;;;;5032011;28;20181;-68
2022/09/08 03:32:19;;;;;;;3.17;2.03;;;16.30;99.90;;;;;;5031674;28;20889;-67
2022/09/08 03:34:44;;;;;;;4.20;2.40;;;16.30;99.90;;;;;;5031408;28;20504;-68
2022/09/08 03:37:10;;;;;;;4.20;2.60;;;16.30;99.90;;;;;;5031614;28;20242;-68
2022/09/08 03:39:35;;;;;;;2.23;2.03;;;16.30;99.90;;;;;;5031372;28;20206;-67
2022/09/08 03:42:02;;;;;;;3.00;2.40;;;16.20;99.90;;;;;;5031381;28;20176;-67
2022/09/08 03:44:27;;;;;;;5.00;2.90;;;16.20;99.90;;;;;;5032016;28;20174;-67
2022/09/08 03:46:53;;;;;;;4.40;2.30;;;16.20;99.90;;;;;;5032161;28;20419;-67
2022/09/08 03:49:19;;;;;;;3.53;2.43;;;16.20;99.90;;;;;;5031596;28;20193;-67
2022/09/08 03:51:45;;;;;;;2.77;1.97;;;16.20;99.90;;;;;;5031798;28;20415;-67
2022/09/08 03:56:54;;;;;;;3.63;2.83;;;16.20;99.90;;;;;;5031545;28;20613;-66
2022/09/08 03:59:20;;;;;;;2.60;2.23;;;16.20;99.90;;;;;;5031614;28;20538;-67
2022/09/08 04:01:46;;;;;;;4.67;2.90;;;16.20;99.90;;;;;;5032603;28;20260;-67
2022/09/08 04:04:11;;;;;;;3.10;2.33;;;16.20;99.90;;;;;;5032613;28;20520;-67
2022/09/08 04:06:37;;;;;;;2.90;2.20;;;16.10;99.90;;;;;;5032784;28;20173;-68
2022/09/08 04:09:03;;;;;;;2.90;2.37;;;16.10;99.90;;;;;;5031871;28;20647;-67
2022/09/08 04:11:29;;;;;;;3.77;3.20;;;16.10;99.90;;;;;;5031594;28;20638;-66
2022/09/08 04:13:55;;;;;;;3.30;2.10;;;16.10;99.90;;;;;;5031227;28;20192;-66
2022/09/08 04:16:21;;;;;;;3.73;2.87;;;16.10;99.90;;;;;;5030778;28;20407;-66
2022/09/08 04:18:46;;;;;;;3.93;2.30;;;16.10;99.90;;;;;;5031306;28;20205;-67
2022/09/08 04:21:12;;;;;;;2.50;2.30;;;16.10;99.90;;;;;;5031048;28;20214;-67
2022/09/08 04:23:39;;;;;;;2.57;2.20;;;16.10;99.90;;;;;;5031145;28;20189;-67
2022/09/08 04:26:09;;;;;;;3.90;2.50;;;16.10;99.90;;;;;;5030833;28;20252;-66
2022/09/08 04:28:36;;;;;;;3.60;2.60;;;16.00;99.90;;;;;;5031227;28;20438;-66
2022/09/08 04:31:07;;;;;;;3.97;2.90;;;16.00;99.90;;;;;;5030796;28;20414;-66
2022/09/08 04:33:32;;;;;;;4.50;2.50;;;16.00;99.90;;;;;;5031133;28;20915;-67
2022/09/08 04:35:58;;;;;;;2.53;2.23;;;16.00;99.90;;;;;;5033552;28;20486;-66
2022/09/08 04:38:25;;;;;;;4.30;2.33;;;16.00;99.90;;;;;;5034629;28;20168;-67
2022/09/08 04:40:51;;;;;;;4.20;3.10;;;16.00;99.90;;;;;;5034611;28;20164;-67
2022/09/08 04:43:16;;;;;;;4.87;3.07;;;16.00;99.90;;;;;;5034403;28;20434;-67
2022/09/08 04:45:42;;;;;;;3.57;2.50;;;16.00;99.90;;;;;;5034439;28;20635;-67
2022/09/08 04:48:07;;;;;;;5.10;2.33;;;16.00;99.90;;;;;;5034549;28;20162;-67
2022/09/08 04:50:32;;;;;;;3.70;2.87;;;16.00;99.90;;;;;;5034512;28;20204;-67
2022/09/08 04:52:58;;;;;;;3.83;3.40;;;16.00;99.90;;;;;;5034722;28;20200;-67
2022/09/08 04:55:24;;;;;;;3.07;2.77;;;16.00;99.90;;;;;;5034903;28;20259;-67
2022/09/08 04:57:49;;;;;;;5.83;4.33;;;16.00;99.90;;;;;;5034537;28;20699;-68
2022/09/08 05:00:15;;;;;;;4.23;3.10;;;16.00;99.90;;;;;;5034388;28;20200;-70
2022/09/08 05:02:44;;;;;;;5.90;3.80;;;16.10;99.90;;;;;;5034371;28;20274;-68
2022/09/08 05:05:09;;;;;;;4.17;2.50;;;16.00;99.90;;;;;;5034116;28;20414;-66
2022/09/08 05:07:35;;;;;;;7.40;3.60;;;16.10;99.90;;;;;;5034412;28;20776;-68
2022/09/08 05:10:01;;;;;;;6.60;4.60;;;16.10;99.90;;;;;;5035290;28;20185;-65
2022/09/08 05:12:27;;;;;;;9.80;6.80;;;16.10;99.90;;;;;;5034114;28;20196;-67
2022/09/08 05:14:52;;;;;;;17.13;5.73;;;16.10;99.90;;;;;;5016457;28;20473;-67
2022/09/08 05:17:18;;;;;;;8.17;5.10;;;16.10;99.90;;;;;;5035062;28;20414;-67
2022/09/08 05:19:44;;;;;;;8.33;5.60;;;16.20;99.90;;;;;;5034920;28;20567;-67
2022/09/08 05:22:09;;;;;;;6.23;4.17;;;16.20;99.90;;;;;;5034214;28;20203;-67
2022/09/08 05:24:35;;;;;;;5.47;3.67;;;16.20;99.90;;;;;;5033783;28;20199;-67
2022/09/08 05:27:00;;;;;;;4.20;2.53;;;16.10;99.90;;;;;;5016584;28;20189;-67
2022/09/08 05:29:26;;;;;;;3.07;2.50;;;16.10;99.90;;;;;;5033385;28;20173;-67
2022/09/08 05:31:51;;;;;;;3.70;2.90;;;16.10;99.90;;;;;;5033710;28;20651;-66
2022/09/08 05:34:17;;;;;;;3.50;2.70;;;16.10;99.90;;;;;;5035464;28;20176;-67
2022/09/08 05:36:42;;;;;;;4.40;2.70;;;16.20;99.90;;;;;;5033459;28;20255;-67
2022/09/08 05:39:09;;;;;;;4.40;2.73;;;16.10;99.90;;;;;;5033688;28;20199;-67
2022/09/08 05:41:35;;;;;;;4.70;3.13;;;16.10;99.90;;;;;;5033549;28;20196;-66
2022/09/08 05:44:00;;;;;;;2.43;2.13;;;16.10;99.90;;;;;;5033589;28;20530;-67
2022/09/08 05:46:27;;;;;;;4.40;3.70;;;16.10;99.90;;;;;;5034601;28;20216;-66
2022/09/08 05:48:54;;;;;;;3.90;2.87;;;16.20;99.90;;;;;;5034001;28;20258;-67
2022/09/08 05:51:21;;;;;;;6.60;3.23;;;16.20;99.90;;;;;;5033900;28;20500;-67
2022/09/08 05:53:47;;;;;;;2.70;2.50;;;16.30;99.90;;;;;;5035488;28;20429;-68
2022/09/08 05:56:18;;;;;;;5.57;2.47;;;16.30;99.90;;;;;;5034101;28;20428;-67
2022/09/08 05:58:54;;;;;;;3.80;2.97;;;16.30;99.90;;;;;;5035126;28;20455;-67
2022/09/08 06:01:20;;;;;;;4.70;3.40;;;16.30;99.90;;;;;;5033599;28;20489;-67
2022/09/08 06:03:50;;;;;;;8.40;3.47;;;16.40;99.90;;;;;;5033136;28;20520;-68
2022/09/08 06:06:17;;;;;;;5.30;2.90;;;16.50;99.90;;;;;;5032354;28;20415;-66
2022/09/08 06:08:42;;;;;;;5.60;2.90;;;16.50;99.90;;;;;;5033037;28;20779;-67
2022/09/08 06:11:08;;;;;;;2.93;2.60;;;16.50;99.90;;;;;;5033274;28;20407;-67
2022/09/08 06:13:35;;;;;;;4.77;3.30;;;16.50;99.90;;;;;;5032985;28;20192;-68
2022/09/08 06:16:09;;;;;;;4.30;3.10;;;16.60;99.90;;;;;;5032600;28;20527;-67
2022/09/08 06:18:36;;;;;;;3.90;3.00;;;16.50;99.90;;;;;;5032645;28;20416;-67
2022/09/08 06:21:14;;;;;;;8.13;3.30;;;16.60;99.90;;;;;;5032677;28;20779;-67
2022/09/08 06:23:40;;;;;;;4.97;3.10;;;16.60;99.90;;;;;;5032500;28;20429;-67
2022/09/08 06:26:27;;;;;;;4.40;3.40;;;16.60;99.90;;;;;;5032635;28;20404;-67
2022/09/08 06:29:23;;;;;;;3.77;3.37;;;16.50;99.90;;;;;;5032460;28;20215;-66
2022/09/08 06:31:55;;;;;;;4.37;3.50;;;16.60;99.90;;;;;;5032427;28;20648;-67
2022/09/08 06:34:26;;;;;;;4.37;2.87;;;16.60;99.90;;;;;;5032451;28;20412;-68
2022/09/08 06:37:01;;;;;;;5.57;2.87;;;16.60;99.90;;;;;;5032440;28;20462;-67
2022/09/08 06:39:42;;;;;;;3.67;3.10;;;16.70;99.90;;;;;;5032291;28;20501;-67
2022/09/08 06:42:16;;;;;;;3.40;2.27;;;16.80;99.90;;;;;;5032124;28;20821;-67
2022/09/08 06:44:44;;;;;;;6.67;3.30;;;16.80;99.90;;;;;;5032418;28;20420;-66
2022/09/08 06:47:20;;;;;;;5.37;2.90;;;16.80;99.90;;;;;;5032125;28;20433;-66
2022/09/08 06:49:45;;;;;;;5.13;3.90;;;16.80;99.90;;;;;;5032310;28;20469;-66
2022/09/08 06:52:20;;;;;;;3.80;2.93;;;16.90;99.90;;;;;;5030944;28;20444;-68
2022/09/08 06:54:53;;;;;;;3.70;3.13;;;16.90;99.90;;;;;;5028077;28;20701;-67
2022/09/08 06:57:19;;;;;;;4.33;3.30;;;16.90;99.90;;;;;;5030078;28;20473;-66
2022/09/08 06:59:56;;;;;;;6.30;3.07;;;16.90;99.90;;;;;;5031941;28;20455;-66
2022/09/08 07:02:56;;;;;;;6.70;3.17;;;16.90;99.90;;;;;;5031556;28;20205;-67
2022/09/08 07:05:41;;;;;;;6.83;2.83;;;16.80;99.90;;;;;;5031495;28;20408;-67
2022/09/08 07:08:25;;;;;;;4.43;2.43;;;16.90;99.90;;;;;;5032119;28;20423;-67
2022/09/08 07:11:23;;;;;;;3.40;3.10;;;16.90;99.90;;;;;;5014516;28;20914;-68
2022/09/08 07:14:26;;;;;;;8.17;3.37;;;16.70;99.90;;;;;;5015794;28;20448;-67
2022/09/08 07:17:02;;;;;;;5.37;3.60;;;16.80;99.90;;;;;;5000015;28;20783;-67
2022/09/08 07:19:50;;;;;;;3.87;3.00;;;16.80;99.90;;;;;;5031632;28;20455;-68
2022/09/08 07:22:41;;;;;;;7.03;3.70;;;16.80;99.90;;;;;;5031804;28;20419;-67
2022/09/08 07:25:22;;;;;;;4.90;3.37;;;16.90;99.90;;;;;;5031478;28;20435;-68
2022/09/08 07:27:54;;;;;;;4.47;3.07;;;17.00;99.90;;;;;;5031798;28;20413;-68
2022/09/08 07:30:20;;;;;;;5.70;3.27;;;17.00;99.90;;;;;;5031774;28;20770;-68
2022/09/08 07:33:01;;;;;;;5.70;3.63;;;17.10;99.90;;;;;;5031709;28;20463;-69
2022/09/08 07:35:52;;;;;;;7.87;3.20;;;17.20;99.90;;;;;;5031628;28;20218;-67
2022/09/08 07:38:34;;;;;;;6.90;3.40;;;17.40;99.90;;;;;;5031732;28;20470;-68
2022/09/08 07:41:03;;;;;;;8.23;3.97;;;17.50;99.90;;;;;;5031860;28;20451;-68
2022/09/08 07:46:13;;;;;;;5.20;3.77;;;17.70;99.90;;;;;;5045167;23;20504;-73
2022/09/08 07:48:46;;;;;;;6.03;3.77;;;17.60;99.90;;;;;;5010613;28;20158;-73
2022/09/08 07:51:15;;;;;;;3.63;3.20;;;17.70;99.90;;;;;;5027369;28;20393;-73
2022/09/08 07:53:46;;;;;;;4.23;3.03;;;17.70;99.90;;;;;;5028279;28;20417;-73
2022/09/08 07:56:14;;;;;;;4.03;3.03;;;17.70;99.90;;;;;;5030057;28;20415;-72
2022/09/08 07:59:01;;;;;;;4.73;3.87;;;17.90;99.90;;;;;;5025778;28;20421;-73
2022/09/08 08:01:33;;;;;;;3.93;3.57;;;18.20;99.90;;;;;;5041319;28;20410;-72
2022/09/08 08:04:42;;;;;;;4.90;4.40;;;18.70;99.90;;;;;;5040803;28;20431;-73
2022/09/08 08:07:13;;;;;;;5.47;3.73;;;18.90;99.90;;;;;;5009441;28;20418;-72
2022/09/08 08:09:57;;;;;;;5.70;3.27;;;19.00;99.90;;;;;;5022079;28;20417;-73
2022/09/08 08:13:00;;;;;;;5.63;3.83;;;18.70;99.90;;;;;;5029420;28;20415;-73
2022/09/08 08:16:09;;;;;;;6.17;3.67;;;18.80;99.90;;;;;;5025592;28;20466;-72
2022/09/08 08:18:53;;;;;;;5.43;3.70;;;18.50;99.90;;;;;;5023687;28;20934;-73
2022/09/08 08:21:28;;;;;;;5.20;3.47;;;18.50;99.90;;;;;;5024350;28;20413;-73
2022/09/08 08:24:19;;;;;;;4.70;3.40;;;18.30;99.90;;;;;;5041579;28;20857;-73
2022/09/08 08:27:02;;;;;;;7.07;3.90;;;18.40;99.90;;;;;;5042042;28;20399;-73
2022/09/08 08:29:41;;;;;;;4.50;3.90;;;18.40;99.90;;;;;;5044373;28;20441;-73
2022/09/08 08:32:21;;;;;;;5.00;3.83;;;18.30;99.90;;;;;;5046790;28;20872;-74
2022/09/08 08:34:56;;;;;;;5.37;3.93;;;18.30;99.90;;;;;;5028629;28;20437;-74
2022/09/08 08:37:27;;;;;;;6.33;3.60;;;18.20;99.90;;;;;;5028872;28;20459;-73
2022/09/08 08:39:53;;;;;;;7.53;4.17;;;18.10;99.90;;;;;;5028066;28;20495;-73
2022/09/08 08:42:24;;;;;;;4.70;4.30;;;17.90;99.90;;;;;;5043752;28;20471;-72
2022/09/08 08:45:32;;;;;;;5.10;3.73;;;17.80;99.90;;;;;;5023536;28;20476;-72
2022/09/08 08:48:36;;;;;;;7.00;3.97;;;17.70;99.90;;;;;;5023266;28;20414;-72
2022/09/08 08:51:17;;;;;;;5.83;4.20;;;17.60;99.90;;;;;;5023768;28;20810;-74
2022/09/08 08:53:55;;;;;;;6.10;3.90;;;17.60;99.90;;;;;;5044708;28;20403;-72
2022/09/08 08:56:30;;;;;;;5.13;3.67;;;17.60;99.90;;;;;;5044810;28;20386;-72
2022/09/08 08:59:20;;;;;;;5.87;4.30;;;17.60;99.90;;;;;;5044320;28;20508;-72
2022/09/08 09:02:13;;;;;;;4.10;3.63;;;17.50;99.90;;;;;;5041295;28;20962;-73
2022/09/08 09:04:53;;;;;;;5.80;5.20;;;17.30;99.90;;;;;;5041687;28;20425;-72
2022/09/08 09:07:19;;;;;;;6.20;4.57;;;16.90;99.90;;;;;;5040095;28;20744;-73
2022/09/08 09:10:13;;;;;;;5.07;4.33;;;16.80;99.90;;;;;;5040897;28;20492;-73
2022/09/08 09:13:00;;;;;;;5.13;4.40;;;16.90;99.90;;;;;;4999812;28;20190;-73
2022/09/08 09:15:49;;;;;;;9.80;6.73;;;17.00;99.90;;;;;;5041411;28;20452;-73
2022/09/08 09:18:20;;;;;;;6.20;4.77;;;17.20;99.90;;;;;;5026729;28;20436;-73
2022/09/08 09:20:52;;;;;;;5.37;4.63;;;17.40;99.90;;;;;;5022638;28;20450;-74
2022/09/08 09:23:42;;;;;;;6.40;5.57;;;17.50;99.90;;;;;;5023788;28;20430;-73
2022/09/08 09:26:19;;;;;;;9.70;5.77;;;17.70;99.90;;;;;;5035632;28;20485;-73
2022/09/08 09:29:21;;;;;;;9.30;5.30;;;17.60;99.90;;;;;;5036212;28;20423;-73
2022/09/08 09:32:25;;;;;;;10.30;5.40;;;17.70;99.90;;;;;;4980190;28;20425;-73
2022/09/08 09:34:58;;;;;;;5.27;4.23;;;17.70;99.90;;;;;;5038572;28;21004;-73
2022/09/08 09:37:46;;;;;;;8.10;5.60;;;17.80;99.90;;;;;;5021466;28;20534;-72
2022/09/08 09:40:25;;;;;;;5.90;4.50;;;17.90;99.90;;;;;;5018096;28;21021;-73
2022/09/08 09:42:53;;;;;;;8.03;5.40;;;18.00;99.90;;;;;;5040386;28;20420;-74
2022/09/08 09:45:50;;;;;;;8.30;5.50;;;17.90;99.90;;;;;;5039156;28;20457;-73
2022/09/08 09:48:40;;;;;;;8.47;4.70;;;18.00;99.90;;;;;;5039763;28;20755;-73
2022/09/08 09:51:43;;;;;;;5.77;4.77;;;18.10;99.90;;;;;;5038409;28;20438;-73
2022/09/08 09:54:17;;;;;;;9.63;5.60;;;18.10;99.90;;;;;;5039276;28;20424;-73
2022/09/08 09:57:04;;;;;;;5.60;5.10;;;18.10;99.90;;;;;;5040961;28;20447;-73
2022/09/08 09:59:32;;;;;;;8.17;6.10;;;18.10;99.90;;;;;;5045365;28;20809;-73
2022/09/08 10:02:08;;;;;;;8.03;5.93;;;18.10;99.90;;;;;;5041561;28;20409;-73
2022/09/08 10:05:15;;;;;;;7.13;5.97;;;18.10;99.90;;;;;;5040730;28;20424;-74
2022/09/08 10:07:59;;;;;;;9.93;6.63;;;18.20;99.90;;;;;;5023534;28;20409;-72
2022/09/08 10:10:50;;;;;;;10.73;6.50;;;18.30;99.90;;;;;;5043279;28;20463;-73
2022/09/08 10:13:28;;;;;;;9.27;5.40;;;18.30;99.90;;;;;;5042886;28;20407;-73
2022/09/08 10:16:08;;;;;;;11.60;6.40;;;18.20;99.90;;;;;;5042014;28;20792;-74
2022/09/08 10:19:06;;;;;;;6.63;5.17;;;18.20;99.90;;;;;;5023670;28;20445;-73
2022/09/08 10:21:50;;;;;;;8.60;5.70;;;18.20;99.90;;;;;;5040213;28;20744;-73
2022/09/08 10:24:40;;;;;;;7.50;6.53;;;18.20;99.90;;;;;;5037859;28;20414;-73
2022/09/08 10:27:40;;;;;;;6.80;5.67;;;18.20;99.90;;;;;;5036978;28;20484;-73
2022/09/08 10:30:30;;;;;;;5.83;5.13;;;18.20;99.90;;;;;;5037285;28;20420;-73
2022/09/08 10:32:58;;;;;;;4.97;4.57;;;18.10;99.90;;;;;;5018236;28;20575;-74
2022/09/08 10:35:46;;;;;;;6.93;5.67;;;18.10;99.90;;;;;;5037570;28;20440;-71
2022/09/08 10:38:39;;;;;;;6.63;5.33;;;18.00;99.90;;;;;;5020220;28;20424;-72
2022/09/08 10:41:26;;;;;;;6.30;5.30;;;18.00;99.90;;;;;;5037334;28;20450;-73
2022/09/08 10:44:12;;;;;;;11.27;6.93;;;18.00;99.90;;;;;;5019388;28;20502;-72
2022/09/08 10:46:40;;;;;;;7.17;5.20;;;17.80;99.90;;;;;;5037368;28;20401;-72
2022/09/08 10:49:24;;;;;;;8.40;6.10;;;17.70;99.90;;;;;;5019588;28;20456;-72
2022/09/08 10:52:05;;;;;;;9.80;6.37;;;17.70;99.90;;;;;;5035372;28;20441;-71
2022/09/08 10:54:36;;;;;;;11.50;6.70;;;17.50;99.90;;;;;;5033667;28;20938;-75
2022/09/08 10:57:36;;;;;;;10.30;6.47;;;17.40;99.90;;;;;;5014455;28;20464;-73
2022/09/08 11:00:35;;;;;;;9.03;6.23;;;17.20;99.90;;;;;;5031861;28;21018;-72
2022/09/08 11:03:25;;;;;;;8.33;5.67;;;17.00;99.90;;;;;;5031888;28;20429;-71
2022/09/08 11:05:58;;;;;;;8.90;6.80;;;17.10;99.90;;;;;;5032066;28;20500;-72
2022/09/08 11:08:29;;;;;;;7.43;6.53;;;17.00;99.90;;;;;;5031948;28;20416;-73
2022/09/08 11:11:04;;;;;;;9.23;7.07;;;17.10;99.90;;;;;;5031784;28;20533;-71
2022/09/08 11:13:39;;;;;;;8.97;7.50;;;17.10;99.90;;;;;;5031942;28;20408;-73
2022/09/08 11:16:24;;;;;;;7.63;6.63;;;17.20;99.90;;;;;;5031977;28;20853;-71
2022/09/08 11:19:24;;;;;;;7.63;6.00;;;17.20;99.90;;;;;;5031924;28;20483;-71
2022/09/08 11:22:10;;;;;;;9.30;6.70;;;17.30;99.90;;;;;;5031706;28;20392;-71
2022/09/08 11:25:01;;;;;;;8.47;6.60;;;17.20;99.90;;;;;;5031859;28;20508;-72
2022/09/08 11:27:43;;;;;;;8.33;7.30;;;17.20;99.90;;;;;;5032031;28;20740;-71
2022/09/08 11:30:10;;;;;;;10.37;6.77;;;17.20;99.90;;;;;;5032586;28;20405;-72
2022/09/08 11:33:01;;;;;;;8.27;7.07;;;17.10;99.90;;;;;;5033350;28;20471;-73
2022/09/08 11:35:37;;;;;;;12.93;7.13;;;17.00;99.90;;;;;;4995569;28;20443;-72
2022/09/08 11:38:16;;;;;;;14.10;7.67;;;17.00;99.90;;;;;;5031890;28;20396;-72
2022/09/08 11:41:00;;;;;;;9.10;7.17;;;17.10;99.90;;;;;;5031937;28;20440;-72
2022/09/08 11:43:48;;;;;;;8.17;6.80;;;17.10;99.90;;;;;;5032483;28;20403;-72
2022/09/08 11:46:35;;;;;;;11.73;7.73;;;17.10;99.90;;;;;;5031397;28;20886;-72
2022/09/08 11:49:25;;;;;;;12.33;7.43;;;16.90;99.90;;;;;;5014437;28;20417;-71
2022/09/08 11:52:15;;;;;;;12.77;8.93;;;16.90;99.90;;;;;;5039006;28;20395;-70
2022/09/08 11:54:54;;;;;;;8.43;7.50;;;16.80;99.90;;;;;;5031203;28;20420;-69
2022/09/08 11:57:34;;;;;;;9.80;8.40;;;16.60;99.90;;;;;;5031462;28;20392;-69
2022/09/08 12:00:32;;;;;;;10.07;8.37;;;16.50;99.90;;;;;;5031477;28;20462;-70
2022/09/08 12:03:25;;;;;;;12.33;9.87;;;16.30;99.90;;;;;;5031422;28;20453;-70
2022/09/08 12:06:13;;;;;;;9.50;6.80;;;16.20;99.90;;;;;;5031295;28;20422;-71
2022/09/08 12:09:04;;;;;;;10.10;8.00;;;16.20;99.90;;;;;;5031675;28;20473;-72
2022/09/08 12:12:19;;;;;;;10.80;9.13;;;16.20;99.90;;;;;;5031338;28;20837;-72
2022/09/08 12:15:05;;;;;;;11.03;8.87;;;16.20;99.90;;;;;;4932216;29;20443;-73
2022/09/08 12:18:01;;;;;;;10.93;8.60;;;16.20;99.90;;;;;;5031558;28;20459;-73
2022/09/08 12:20:38;;;;;;;14.30;9.67;;;16.40;99.90;;;;;;5031367;28;20455;-73
2022/09/08 12:23:23;;;;;;;11.67;9.90;;;16.40;99.90;;;;;;5031232;28;20407;-72
2022/09/08 12:26:14;;;;;;;10.20;7.83;;;16.40;99.90;;;;;;5035659;28;20420;-72
2022/09/08 12:28:59;;;;;;;13.00;10.30;;;16.40;99.90;;;;;;5036794;28;20437;-72
2022/09/08 12:31:47;;;;;;;10.27;8.10;;;16.50;99.90;;;;;;5035461;28;20397;-72
2022/09/08 12:34:38;;;;;;;10.77;8.70;;;16.40;99.90;;;;;;5037994;28;20461;-73
2022/09/08 12:37:13;;;;;;;10.60;9.50;;;16.50;99.90;;;;;;4993924;28;20913;-73
2022/09/08 12:40:10;;;;;;;9.77;8.30;;;16.50;99.90;;;;;;5020933;28;20823;-73
2022/09/08 12:43:14;;;;;;;10.50;8.57;;;16.70;99.90;;;;;;5020068;28;20784;-73
2022/09/08 12:45:50;;;;;;;15.67;10.70;;;16.80;99.90;;;;;;4939926;29;20494;-73
2022/09/08 12:48:28;;;;;;;13.97;10.40;;;16.90;99.90;;;;;;5027639;28;20408;-73
2022/09/08 12:51:10;;;;;;;10.33;8.63;;;17.00;99.90;;;;;;5039367;28;20400;-72
2022/09/08 12:54:09;;;;;;;9.63;8.57;;;17.00;99.90;;;;;;5020319;28;20445;-73
2022/09/08 12:56:55;;;;;;;14.13;8.90;;;17.10;99.90;;;;;;5042779;28;20435;-73
2022/09/08 12:59:51;;;;;;;9.60;8.60;;;17.20;99.90;;;;;;5045982;28;20491;-72
2022/09/08 13:02:45;;;;;;;9.87;8.90;;;17.40;99.90;;;;;;5026087;28;20458;-72
2022/09/08 13:05:37;;;;;;;12.13;9.00;;;17.40;99.90;;;;;;5041749;28;20448;-72
2022/09/08 13:08:21;;;;;;;9.43;8.53;;;17.50;99.90;;;;;;5025367;28;20806;-72
2022/09/08 13:10:51;;;;;;;13.50;9.33;;;17.60;99.90;;;;;;5023904;28;20405;-73
2022/09/08 13:13:42;;;;;;;12.03;9.83;;;17.70;99.90;;;;;;5024374;28;20463;-73
2022/09/08 13:16:07;;;;;;;12.10;10.00;;;17.70;99.90;;;;;;5027669;28;20442;-73
2022/09/08 13:18:38;;;;;;;9.37;7.50;;;17.80;99.90;;;;;;5044747;28;20414;-73
2022/09/08 13:21:43;;;;;;;11.67;8.43;;;17.90;99.90;;;;;;5045902;28;20183;-73
2022/09/08 13:24:29;;;;;;;10.07;8.83;;;17.90;99.90;;;;;;4998074;28;20427;-73
2022/09/08 13:27:12;;;;;;;8.87;7.73;;;18.10;99.90;;;;;;5045771;28;20418;-74
2022/09/08 13:29:50;;;;;;;9.43;8.43;;;18.10;99.90;;;;;;5027494;28;20404;-74
2022/09/08 13:32:18;;;;;;;10.50;7.70;;;18.30;99.90;;;;;;5045265;28;20413;-73
2022/09/08 13:35:19;;;;;;;9.37;7.63;;;18.30;99.90;;;;;;5028226;28;20839;-73
2022/09/08 13:38:32;;;;;;;9.40;8.00;;;18.30;99.90;;;;;;5021845;28;20478;-73
2022/09/08 13:41:11;;;;;;;8.77;7.87;;;18.20;99.90;;;;;;5032043;28;20466;-73